createdAt,value
2022-11-14T00:04:49.524Z,89.55
2022-11-14T00:10:12.275Z,90.65
2022-11-14T00:15:34.000Z,90.41
2022-11-14T00:20:55.767Z,92.06
2022-11-14T00:26:17.610Z,91.93
2022-11-14T00:31:39.366Z,91.00
2022-11-14T00:37:01.502Z,90.61
2022-11-14T00:42:23.308Z,91.18
2022-11-14T00:47:45.121Z,91.21
2022-11-14T00:53:07.403Z,91.03
2022-11-14T00:58:29.734Z,91.44
2022-11-14T01:03:52.410Z,90.87
2022-11-14T01:09:14.228Z,91.05
2022-11-14T01:14:36.184Z,90.50
2022-11-14T01:19:57.936Z,90.83
2022-11-14T01:25:19.671Z,90.94
2022-11-14T01:30:41.637Z,90.23
2022-11-14T01:36:03.692Z,91.04
2022-11-14T01:41:25.543Z,90.95
2022-11-14T01:46:53.225Z,90.50
2022-11-14T01:52:21.784Z,90.74
2022-11-14T01:57:47.115Z,90.39
2022-11-14T02:03:09.793Z,90.53
2022-11-14T02:08:33.556Z,91.06
2022-11-14T02:13:55.651Z,90.83
2022-11-14T02:19:17.508Z,90.85
2022-11-14T02:24:39.206Z,90.59
2022-11-14T02:30:13.583Z,90.70
2022-11-14T02:35:35.297Z,92.64
2022-11-14T02:40:58.952Z,93.45
2022-11-14T02:46:20.687Z,93.54
2022-11-14T02:51:42.438Z,93.08
2022-11-14T02:57:04.150Z,94.03
2022-11-14T03:02:26.116Z,94.72
2022-11-14T03:07:48.249Z,95.04
2022-11-14T03:13:09.950Z,94.20
2022-11-14T03:18:32.008Z,95.12
2022-11-14T03:23:53.960Z,94.81
2022-11-14T03:29:15.767Z,94.12
2022-11-14T03:34:37.466Z,95.52
2022-11-14T03:39:59.231Z,94.74
2022-11-14T03:45:20.984Z,95.29
2022-11-14T03:50:43.661Z,95.57
2022-11-14T03:56:05.910Z,94.67
2022-11-14T04:01:29.117Z,93.31
2022-11-14T04:06:50.923Z,93.23
2022-11-14T04:12:15.671Z,92.29
2022-11-14T04:17:39.992Z,91.69
2022-11-14T04:23:01.829Z,90.96
2022-11-14T04:28:23.533Z,90.67
2022-11-14T04:33:45.261Z,90.69
2022-11-14T04:39:07.031Z,91.33
2022-11-14T04:44:28.735Z,91.48
2022-11-14T04:49:50.506Z,92.09
2022-11-14T04:55:12.208Z,92.03
2022-11-14T05:00:33.976Z,92.21
2022-11-14T05:06:01.046Z,93.21
2022-11-14T05:11:26.668Z,92.98
2022-11-14T05:16:50.802Z,90.57
2022-11-14T05:22:12.489Z,90.04
2022-11-14T05:27:34.220Z,90.85
2022-11-14T05:32:55.923Z,90.99
2022-11-14T05:38:17.615Z,92.56
2022-11-14T05:43:40.353Z,92.06
2022-11-14T05:49:02.114Z,92.50
2022-11-14T05:54:23.810Z,92.48
2022-11-14T05:59:45.520Z,93.20
2022-11-14T06:05:07.453Z,93.49
2022-11-14T06:10:29.529Z,94.50
2022-11-14T06:15:51.243Z,94.30
2022-11-14T06:21:18.215Z,93.00
2022-11-14T06:26:39.978Z,93.86
2022-11-14T06:32:01.670Z,94.65
2022-11-14T06:37:23.364Z,93.67
2022-11-14T06:42:45.062Z,93.60
2022-11-14T06:48:07.014Z,95.78
2022-11-14T06:53:30.633Z,93.92
2022-11-14T06:58:52.439Z,92.42
2022-11-14T07:04:14.250Z,91.81
2022-11-14T07:09:36.007Z,93.17
2022-11-14T07:14:57.711Z,93.06
2022-11-14T07:20:19.498Z,93.36
2022-11-14T07:25:41.876Z,92.44
2022-11-14T07:31:04.742Z,90.97
2022-11-14T07:36:26.444Z,91.18
2022-11-14T07:41:48.178Z,91.81
2022-11-14T07:47:09.884Z,92.72
2022-11-14T07:52:31.686Z,92.53
2022-11-14T07:57:54.842Z,92.35
2022-11-14T08:03:16.561Z,91.88
2022-11-14T08:08:38.418Z,91.27
2022-11-14T08:14:00.131Z,91.18
2022-11-14T08:19:21.930Z,91.23
2022-11-14T08:24:43.616Z,90.30
2022-11-14T08:30:05.785Z,91.37
2022-11-14T08:35:27.542Z,91.56
2022-11-14T08:40:49.250Z,95.01
2022-11-14T08:46:10.980Z,96.49
2022-11-14T08:51:32.732Z,100.00
2022-11-14T08:56:54.546Z,100.00
2022-11-14T09:02:16.446Z,100.00
2022-11-14T09:07:38.326Z,100.00
2022-11-14T09:13:01.614Z,100.00
2022-11-14T09:18:23.374Z,100.00
2022-11-14T09:23:47.723Z,100.00
2022-11-14T09:29:09.542Z,100.00
2022-11-14T09:34:31.484Z,100.00
2022-11-14T09:39:53.222Z,100.00
2022-11-14T09:45:17.124Z,100.00
2022-11-14T09:50:47.992Z,100.00
2022-11-14T09:56:18.646Z,100.00
2022-11-14T10:02:04.903Z,100.00
2022-11-14T10:07:44.263Z,100.00
2022-11-14T10:13:43.874Z,100.00
2022-11-14T10:19:13.644Z,100.00
2022-11-14T10:25:07.402Z,100.00
2022-11-14T10:30:46.471Z,100.00
2022-11-14T10:36:40.303Z,100.00
2022-11-14T10:42:10.843Z,100.00
2022-11-14T10:47:40.633Z,100.00
2022-11-14T10:53:07.046Z,100.00
2022-11-14T10:58:29.402Z,100.00
2022-11-14T11:03:51.362Z,100.00
2022-11-14T11:09:45.269Z,100.00
2022-11-14T11:15:13.333Z,100.00
2022-11-14T11:20:38.680Z,100.00
2022-11-14T11:26:07.790Z,100.00
2022-11-14T11:31:50.122Z,100.00
2022-11-14T11:37:20.915Z,100.00
2022-11-14T11:48:40.488Z,100.00
2022-11-14T11:54:26.972Z,100.00
2022-11-14T11:59:54.087Z,100.00
2022-11-14T12:05:29.634Z,100.00
2022-11-14T12:10:53.268Z,100.00
2022-11-14T12:16:30.442Z,100.00
2022-11-14T12:22:22.714Z,100.00
2022-11-14T12:28:04.242Z,100.00
2022-11-14T12:33:36.970Z,100.00
2022-11-14T12:39:00.112Z,100.00
2022-11-14T12:44:27.622Z,100.00
2022-11-14T12:49:52.667Z,98.18
2022-11-14T12:55:43.478Z,97.63
2022-11-14T13:01:31.322Z,98.25
2022-11-14T13:06:55.912Z,96.44
2022-11-14T13:12:47.601Z,97.43
2022-11-14T13:18:40.137Z,98.07
2022-11-14T13:24:02.501Z,97.22
2022-11-14T13:29:48.153Z,97.59
2022-11-14T13:35:24.945Z,98.08
2022-11-14T13:40:59.152Z,97.98
2022-11-14T13:46:41.453Z,98.56
2022-11-14T13:52:03.367Z,98.32
2022-11-14T13:57:27.988Z,98.92
2022-11-14T14:03:01.702Z,97.41
2022-11-14T14:08:48.973Z,94.68
2022-11-14T14:14:50.251Z,96.93
2022-11-14T14:20:35.095Z,98.99
2022-11-14T14:26:13.714Z,97.76
2022-11-14T14:31:41.501Z,91.58
2022-11-14T14:37:03.253Z,90.75
2022-11-14T14:42:29.619Z,93.43
2022-11-14T14:48:12.621Z,93.40
2022-11-14T14:53:35.960Z,90.18
2022-11-14T14:58:57.696Z,84.40
2022-11-14T15:04:21.942Z,89.54
2022-11-14T15:09:52.862Z,87.48
2022-11-14T15:15:16.486Z,85.36
2022-11-14T15:20:38.215Z,87.08
2022-11-14T15:26:05.226Z,86.89
2022-11-14T15:31:27.001Z,88.63
2022-11-14T15:37:16.376Z,88.58
2022-11-14T15:42:38.197Z,88.35
2022-11-14T15:48:04.858Z,87.18
2022-11-14T15:53:28.699Z,89.02
2022-11-14T15:58:51.003Z,90.33
2022-11-14T16:04:18.814Z,90.76
2022-11-14T16:09:41.095Z,90.93
2022-11-14T16:15:02.846Z,90.65
2022-11-14T16:20:27.590Z,91.39
2022-11-14T16:25:49.309Z,92.63
2022-11-14T16:31:12.521Z,91.70
2022-11-14T16:36:34.234Z,91.76
2022-11-14T16:42:02.827Z,92.71
2022-11-14T16:47:24.602Z,93.55
2022-11-14T16:52:46.317Z,93.99
2022-11-14T16:58:08.064Z,93.62
2022-11-14T17:03:31.941Z,93.88
2022-11-14T17:08:58.266Z,93.81
2022-11-14T17:14:19.985Z,93.17
2022-11-14T17:19:45.937Z,92.90
2022-11-14T17:25:08.271Z,92.43
2022-11-14T17:30:29.986Z,91.96
2022-11-14T17:35:51.986Z,91.93
2022-11-14T17:41:14.021Z,91.88
2022-11-14T17:46:35.753Z,92.31
2022-11-14T17:51:57.486Z,91.61
2022-11-14T17:57:19.182Z,90.42
2022-11-14T18:02:40.910Z,90.82
2022-11-14T18:08:02.644Z,90.92
2022-11-14T18:13:24.361Z,91.20
2022-11-14T18:18:46.205Z,91.49
2022-11-14T18:24:12.950Z,91.13
2022-11-14T18:29:34.673Z,91.60
2022-11-14T18:34:56.375Z,93.51
2022-11-14T18:40:18.157Z,93.85
2022-11-14T18:45:39.854Z,94.07
2022-11-14T18:51:02.868Z,94.58
2022-11-14T18:56:25.660Z,96.69
2022-11-14T19:01:47.400Z,96.46
2022-11-14T19:07:10.020Z,97.36
2022-11-14T19:12:31.842Z,97.56
2022-11-14T19:17:53.588Z,97.46
2022-11-14T19:23:15.428Z,97.01
2022-11-14T19:28:37.567Z,95.97
2022-11-14T19:34:00.355Z,95.06
2022-11-14T19:39:22.066Z,94.80
2022-11-14T19:44:43.858Z,94.49
2022-11-14T19:50:06.004Z,96.32
2022-11-14T19:55:27.922Z,97.11
2022-11-14T20:00:49.642Z,98.12
2022-11-14T20:06:17.421Z,97.59
2022-11-14T20:11:39.383Z,96.55
2022-11-14T20:17:01.186Z,93.92
2022-11-14T20:22:22.888Z,92.26
2022-11-14T20:27:44.690Z,92.16
2022-11-14T20:33:08.056Z,92.25
2022-11-14T20:38:31.191Z,91.67
2022-11-14T20:43:52.986Z,91.96
2022-11-14T20:49:14.877Z,92.24
2022-11-14T20:54:36.735Z,92.28
2022-11-14T20:59:58.591Z,91.75
2022-11-14T21:05:20.276Z,92.31
2022-11-14T21:10:47.443Z,93.66
2022-11-14T21:16:16.088Z,94.51
2022-11-14T21:21:38.523Z,94.51
2022-11-14T21:27:00.226Z,95.35
2022-11-14T21:32:21.930Z,95.27
2022-11-14T21:37:43.624Z,95.02
2022-11-14T21:43:05.336Z,95.96
2022-11-14T21:48:31.343Z,96.93
2022-11-14T21:53:55.549Z,97.37
2022-11-14T21:59:21.212Z,96.94
2022-11-14T22:04:42.932Z,96.80
2022-11-14T22:10:04.961Z,96.87
2022-11-14T22:15:26.705Z,96.85
2022-11-14T22:20:48.433Z,95.59
2022-11-14T22:26:11.749Z,96.32
2022-11-14T22:31:33.592Z,96.41
2022-11-14T22:36:55.290Z,96.71
2022-11-14T22:42:17.001Z,96.64
2022-11-14T22:47:38.721Z,97.05
2022-11-14T22:53:01.467Z,97.01
2022-11-14T22:58:23.612Z,96.54
2022-11-14T23:03:48.049Z,96.98
2022-11-14T23:09:09.940Z,97.24
2022-11-14T23:14:31.680Z,96.03
2022-11-14T23:19:53.448Z,95.25
2022-11-14T23:25:15.319Z,94.05
2022-11-14T23:30:37.102Z,95.28
2022-11-14T23:35:59.042Z,95.36
2022-11-14T23:41:23.512Z,96.04
2022-11-14T23:46:45.258Z,94.84
2022-11-14T23:52:06.964Z,94.69
2022-11-14T23:57:28.664Z,95.23
